Time;durP1;ratioP1;P1;durP2;ratioP2;P2;SDS_P1;SDS_P2;PMS_P1;PMS_P2;Temp;Humidity;BMP_temperature;BMP_pressure;BME280_temperature;BME280_humidity;BME280_pressure;Samples;Min_cycle;Max_cycle;Signal;HPM_P1;HPM_P2
2023/09/09 00:01:16;;;;;;;13.70;13.30;;;;;;;-141.02;100.00;38831.81;5135297;27;20204;-58
2023/09/09 00:03:45;;;;;;;13.68;13.27;;;;;;;-141.02;100.00;38812.63;5135339;27;20281;-58
2023/09/09 00:06:12;;;;;;;14.05;13.55;;;;;;;-141.02;100.00;38780.03;5135250;27;20220;-58
2023/09/09 00:08:40;;;;;;;13.95;13.45;;;;;;;-141.02;100.00;38753.19;5135505;27;20228;-58
2023/09/09 00:11:09;;;;;;;14.13;13.63;;;;;;;-141.02;100.00;38745.53;5135297;27;20278;-58
2023/09/09 00:13:36;;;;;;;13.38;12.98;;;;;;;-141.02;100.00;38768.53;5135097;27;20199;-58
2023/09/09 00:16:03;;;;;;;13.43;13.02;;;;;;;-141.02;100.00;38747.44;5134922;27;20283;-58
2023/09/09 00:18:30;;;;;;;13.40;13.00;;;;;;;-141.02;100.00;38749.34;5135310;27;20204;-58
2023/09/09 00:21:00;;;;;;;13.93;13.43;;;;;;;-141.02;100.00;38758.94;5134589;27;20272;-58
2023/09/09 00:23:27;;;;;;;13.38;12.98;;;;;;;-141.02;100.00;38718.69;5135188;27;20249;-59
2023/09/09 00:25:54;;;;;;;13.35;12.95;;;;;;;-141.02;100.00;38699.50;5135173;27;20189;-58
2023/09/09 00:28:21;;;;;;;13.38;12.98;;;;;;;-141.02;100.00;38699.50;5135023;27;20271;-59
2023/09/09 00:30:48;;;;;;;12.77;12.38;;;;;;;-141.02;100.00;38711.00;5134942;27;20211;-58
2023/09/09 00:33:15;;;;;;;13.10;12.70;;;;;;;-141.02;100.00;38703.34;5134693;27;20241;-58
2023/09/09 00:35:43;;;;;;;13.05;12.65;;;;;;;-141.02;100.00;38684.16;5134621;27;20661;-58
2023/09/09 00:38:12;;;;;;;13.20;12.80;;;;;;;-141.02;100.00;38659.25;5134646;27;20193;-58
2023/09/09 00:40:43;;;;;;;13.57;13.18;;;;;;;-141.02;100.00;38688.00;5134850;27;20196;-57
2023/09/09 00:43:10;;;;;;;13.23;12.82;;;;;;;-141.02;100.00;38680.34;5134852;27;20206;-58
2023/09/09 00:45:39;;;;;;;13.25;12.85;;;;;;;-141.02;100.00;38688.00;5134344;27;20228;-58
2023/09/09 00:48:06;;;;;;;13.18;12.77;;;;;;;-141.02;100.00;38718.69;5134745;27;20193;-58
2023/09/09 00:50:34;;;;;;;13.35;12.95;;;;;;;-141.02;100.00;38707.19;5134245;27;20195;-58
2023/09/09 00:53:01;;;;;;;13.25;12.85;;;;;;;-141.02;100.00;38714.84;5134279;27;20220;-58
2023/09/09 00:55:30;;;;;;;13.60;13.20;;;;;;;-141.02;100.00;38724.44;5134556;27;20200;-58
2023/09/09 00:57:57;;;;;;;13.10;12.70;;;;;;;-141.02;100.00;38718.69;5134487;27;20299;-58
2023/09/09 01:00:24;;;;;;;13.00;12.60;;;;;;;-141.02;100.00;38737.84;5134469;27;20196;-58
2023/09/09 01:02:51;;;;;;;12.48;12.07;;;;;;;-141.02;100.00;38749.34;5134013;27;20196;-58
2023/09/09 01:05:18;;;;;;;12.77;12.38;;;;;;;-141.02;100.00;38741.69;5133956;27;20260;-58
2023/09/09 01:07:47;;;;;;;12.57;12.18;;;;;;;-141.02;100.00;38760.84;5133899;27;20670;-58
2023/09/09 01:10:15;;;;;;;12.88;12.48;;;;;;;-141.02;100.00;38757.03;5134273;27;20188;-57
2023/09/09 01:12:44;;;;;;;12.70;12.30;;;;;;;-141.02;100.00;38760.84;5133821;27;20259;-58
2023/09/09 01:15:12;;;;;;;12.48;12.07;;;;;;;-141.02;100.00;38749.34;5134059;27;20193;-58
2023/09/09 01:17:40;;;;;;;12.73;12.32;;;;;;;-141.02;100.00;38753.19;5133791;27;20569;-58
2023/09/09 01:20:12;;;;;;;13.13;12.73;;;;;;;-141.02;100.00;38757.03;5134085;27;20231;-58
2023/09/09 01:22:41;;;;;;;13.10;12.70;;;;;;;-141.02;100.00;38766.63;5133721;27;20228;-58
2023/09/09 01:25:09;;;;;;;12.57;12.18;;;;;;;-141.02;100.00;38772.38;5133925;27;20242;-58
2023/09/09 01:27:37;;;;;;;12.55;12.15;;;;;;;-141.02;100.00;38778.13;5133957;27;20204;-58
2023/09/09 01:30:05;;;;;;;12.82;12.43;;;;;;;-141.02;100.00;38781.94;5133891;27;20196;-58
2023/09/09 01:32:32;;;;;;;12.68;12.27;;;;;;;-141.02;100.00;38822.22;5132480;27;20696;-58
2023/09/09 01:34:59;;;;;;;12.40;12.00;;;;;;;-141.02;100.00;38820.31;5133859;27;20249;-58
2023/09/09 01:37:26;;;;;;;12.70;12.30;;;;;;;-141.02;100.00;38793.47;5133662;27;20287;-58
2023/09/09 01:39:55;;;;;;;12.50;12.10;;;;;;;-141.02;100.00;38810.72;5133480;27;20282;-58
2023/09/09 01:42:22;;;;;;;12.77;12.38;;;;;;;-141.02;100.00;38803.03;5133372;27;20654;-58
2023/09/09 01:44:51;;;;;;;12.80;12.40;;;;;;;-141.02;100.00;38839.47;5133341;27;20670;-65
2023/09/09 01:47:43;;;;;;;12.23;11.82;;;;;;;-141.02;100.00;38841.41;5133336;27;20662;-58
2023/09/09 01:50:10;;;;;;;12.93;12.52;;;;;;;-141.02;100.00;38874.00;5133644;27;20197;-58
2023/09/09 01:52:37;;;;;;;12.25;11.85;;;;;;;-141.02;100.00;38883.56;5133104;27;20228;-58
2023/09/09 01:55:06;;;;;;;12.63;12.23;;;;;;;-141.02;100.00;38864.41;5133529;27;20189;-57
2023/09/09 01:57:33;;;;;;;13.30;12.90;;;;;;;-141.02;100.00;38941.09;5133417;27;20194;-58
2023/09/09 02:00:00;;;;;;;12.60;12.20;;;;;;;-141.02;100.00;38964.13;5133165;27;20189;-58
2023/09/09 02:02:27;;;;;;;12.55;12.15;;;;;;;-141.02;100.00;38969.88;5133443;27;20265;-58
2023/09/09 02:04:54;;;;;;;11.95;11.55;;;;;;;-141.02;100.00;39017.81;5132869;27;20259;-57
2023/09/09 02:07:21;;;;;;;12.10;11.70;;;;;;;-141.02;100.00;39056.16;5133362;27;20188;-58
2023/09/09 02:09:48;;;;;;;12.32;11.93;;;;;;;-141.02;100.00;39079.16;5133291;27;20203;-58
2023/09/09 02:13:06;;;;;;;12.20;11.80;;;;;;;-141.02;100.00;39136.69;5133190;27;20246;-58
2023/09/09 02:15:34;;;;;;;12.18;11.77;;;;;;;-141.02;100.00;39157.78;5132725;27;20245;-58
2023/09/09 02:18:02;;;;;;;12.10;11.70;;;;;;;-141.02;100.00;39190.38;5133189;27;20193;-58
2023/09/09 02:20:29;;;;;;;12.05;11.65;;;;;;;-141.02;100.00;39339.97;5132936;27;20206;-58
2023/09/09 02:22:56;;;;;;;12.43;12.02;;;;;;;-141.02;100.00;39497.22;5132838;27;20192;-58
2023/09/09 02:25:23;;;;;;;11.45;11.15;;;;;;;-141.02;100.00;39675.59;5133163;27;20203;-58
2023/09/09 02:27:51;;;;;;;11.30;11.00;;;;;;;-141.02;100.00;39865.47;5133161;27;20225;-58
2023/09/09 02:30:18;;;;;;;10.95;10.65;;;;;;;-141.02;100.00;39997.81;5133051;27;20288;-58
2023/09/09 02:32:47;;;;;;;11.27;10.98;;;;;;;-141.02;100.00;40026.59;5133113;27;20314;-58
2023/09/09 02:35:14;;;;;;;10.80;10.50;;;;;;;-141.02;100.00;40329.69;5133047;27;20196;-58
2023/09/09 02:37:41;;;;;;;10.70;10.40;;;;;;;-141.02;100.00;41152.75;5132713;27;20228;-58
2023/09/09 02:40:10;;;;;;;9.80;9.50;;;;;;;-141.02;100.00;42697.72;5133051;27;20228;-58
2023/09/09 02:42:37;;;;;;;9.73;9.43;;;;;;;-141.02;100.00;44535.34;5132677;27;20622;-58
2023/09/09 02:45:04;;;;;;;9.85;9.55;;;;;;;-141.02;100.00;45705.25;5136243;27;20283;-58
2023/09/09 02:47:31;;;;;;;9.80;9.50;;;;;;;-141.02;100.00;47573.38;5136745;27;20642;-58
2023/09/09 02:50:00;;;;;;;9.48;9.18;;;;;;;-141.02;100.00;50096.56;5136770;27;20192;-58
2023/09/09 02:52:28;;;;;;;8.90;8.70;;;;;;;-141.02;100.00;54046.69;5136588;27;20246;-58
2023/09/09 02:54:55;;;;;;;8.90;8.70;;;;;;;-141.02;100.00;56019.63;5136919;27;20185;-58
2023/09/09 02:57:22;;;;;;;8.07;7.88;;;;;;;-141.02;100.00;57993.72;5136930;27;20576;-58
2023/09/09 02:59:49;;;;;;;8.50;8.30;;;;;;;-141.02;100.00;59475.03;5136784;27;20235;-58
2023/09/09 03:02:16;;;;;;;8.30;8.10;;;;;;;-141.02;100.00;60215.94;5136570;27;20196;-58
2023/09/09 03:04:43;;;;;;;8.65;8.45;;;;;;;-141.02;100.00;61451.13;5136190;27;20614;-58
2023/09/09 03:07:11;;;;;;;8.30;8.10;;;;;;;-141.02;100.00;62439.59;5136689;27;20251;-58
2023/09/09 03:09:38;;;;;;;8.50;8.30;;;;;;;-141.02;100.00;63428.38;5136694;27;20230;-58
2023/09/09 03:12:06;;;;;;;8.45;8.25;;;;;;;-141.02;100.00;64417.41;5136509;27;20256;-58
2023/09/09 03:14:33;;;;;;;8.35;8.15;;;;;;;-141.02;100.00;65654.13;5136272;27;20646;-57
2023/09/09 03:17:01;;;;;;;8.27;8.07;;;;;;;-141.02;100.00;66643.84;5136438;27;20192;-58
2023/09/09 03:19:28;;;;;;;8.40;8.20;;;;;;;-141.02;100.00;67138.78;5136133;27;20650;-58
2023/09/09 03:21:57;;;;;;;8.30;8.10;;;;;;;-141.02;100.00;68128.91;5136109;27;20196;-58
2023/09/09 03:24:25;;;;;;;8.40;8.20;;;;;;;-141.02;100.00;69119.34;5136389;27;20193;-58
2023/09/09 03:26:52;;;;;;;8.20;8.00;;;;;;;-141.02;100.00;70853.25;5136119;27;20203;-58
2023/09/09 03:29:35;;;;;;;8.10;7.90;;;;;;;-141.02;100.00;71844.47;5135904;27;20662;-58
2023/09/09 03:32:02;;;;;;;8.00;7.80;;;;;;;-141.02;100.00;72340.16;5136195;27;20280;-58
2023/09/09 03:34:29;;;;;;;8.15;7.95;;;;;;;-141.02;100.00;73331.81;5136139;27;20234;-60
2023/09/09 03:36:56;;;;;;;8.00;7.80;;;;;;;-141.02;100.00;74571.75;5136230;27;20655;-57
2023/09/09 03:39:25;;;;;;;8.00;7.80;;;;;;;-141.02;100.00;75315.94;5135676;27;20235;-58
2023/09/09 03:41:52;;;;;;;7.85;7.65;;;;;;;-141.02;100.00;76804.81;5136105;27;20192;-58
2023/09/09 03:44:19;;;;;;;7.85;7.65;;;;;;;-141.02;100.00;76556.59;5135983;27;20653;-58
2023/09/09 03:46:46;;;;;;;7.78;7.57;;;;;;;-141.02;100.00;77549.47;5135663;27;20196;-58
2023/09/09 03:49:13;;;;;;;7.65;7.45;;;;;;;-141.02;100.00;78294.28;5135609;27;20208;-58
2023/09/09 03:51:40;;;;;;;7.95;7.75;;;;;;;-141.02;100.00;79039.28;5135825;27;20200;-58
2023/09/09 03:54:07;;;;;;;8.10;7.90;;;;;;;-141.02;100.00;79784.44;5135829;27;20297;-58
2023/09/09 03:56:35;;;;;;;7.60;7.40;;;;;;;-141.02;100.00;81026.72;5134460;27;20280;-58
2023/09/09 03:59:02;;;;;;;7.43;7.22;;;;;;;-141.02;100.00;82766.69;5135428;27;20189;-57
2023/09/09 04:01:30;;;;;;;6.65;6.45;;;;;;;-141.02;100.00;84010.03;5135389;27;20204;-58
2023/09/09 04:03:56;;;;;;;6.60;6.40;;;;;;;-141.02;100.00;85253.84;5135392;27;20239;-58
2023/09/09 04:06:24;;;;;;;7.38;7.18;;;;;;;-141.02;100.00;86000.34;5135600;27;20227;-58
2023/09/09 04:08:55;;;;;;;7.40;7.20;;;;;;;-141.02;100.00;86747.00;5135285;27;20680;-58
2023/09/09 04:11:22;;;;;;;7.45;7.25;;;;;;;-141.02;100.00;87493.84;5135539;27;20241;-58
2023/09/09 04:13:51;;;;;;;7.25;7.05;;;;;;;-141.02;100.00;88738.88;5135381;27;20310;-58
2023/09/09 04:16:18;;;;;;;7.20;7.00;;;;;;;-141.02;100.00;89237.03;5135145;27;20192;-58
2023/09/09 04:18:45;;;;;;;7.30;7.10;;;;;;;-141.02;100.00;89237.03;5135470;27;20230;-57
2023/09/09 04:21:12;;;;;;;7.25;7.05;;;;;;;-141.02;100.00;89735.28;5135312;27;20196;-58
2023/09/09 04:23:38;;;;;;;7.40;7.20;;;;;;;-141.02;100.00;89984.41;5135020;27;20196;-58
2023/09/09 04:26:06;;;;;;;7.50;7.30;;;;;;;-141.02;100.00;90482.72;5134928;27;20245;-58
2023/09/09 04:28:33;;;;;;;7.50;7.30;;;;;;;-141.02;100.00;90731.94;5135198;27;20271;-58
2023/09/09 04:31:02;;;;;;;7.45;7.25;;;;;;;-141.02;100.00;91230.38;5135166;27;20200;-58
2023/09/09 04:33:29;;;;;;;7.28;7.07;;;;;;;-141.02;100.00;91728.88;5135018;27;20317;-58
2023/09/09 04:35:56;;;;;;;7.28;7.07;;;;;;;-141.02;100.00;91479.63;5135180;27;20220;-58
2023/09/09 04:38:23;;;;;;;7.97;7.78;;;;;;;-141.02;100.00;88987.97;5134811;27;20666;-58
2023/09/09 04:40:50;;;;;;;8.52;8.32;;;;;;;-141.02;100.00;87244.88;5134944;27;20327;-58
2023/09/09 04:43:17;;;;;;;8.77;8.57;;;;;;;-141.02;100.00;86249.22;5134579;27;20204;-58
2023/09/09 04:45:44;;;;;;;9.40;9.10;;;;;;;-141.02;100.00;84507.50;5134557;27;20188;-58
2023/09/09 04:48:16;;;;;;;9.48;9.18;;;;;;;-141.02;100.00;83761.31;5134559;27;20231;-58
2023/09/09 04:50:43;;;;;;;9.32;9.02;;;;;;;-141.02;100.00;83761.31;5134760;27;20584;-58
2023/09/09 04:53:10;;;;;;;9.00;8.80;;;;;;;-141.02;100.00;83512.63;5134284;27;20267;-58
2023/09/09 04:55:37;;;;;;;9.80;9.50;;;;;;;-141.02;100.00;82269.47;5134635;27;20192;-58
2023/09/09 04:58:04;;;;;;;9.75;9.45;;;;;;;-141.02;100.00;82518.06;5135321;27;20196;-58
2023/09/09 05:00:31;;;;;;;9.20;9.00;;;;;;;-141.02;100.00;82269.47;5134614;27;20287;-58
2023/09/09 05:02:58;;;;;;;10.50;10.20;;;;;;;-141.02;100.00;82020.88;5134503;27;20232;-58
2023/09/09 05:05:26;;;;;;;10.70;10.40;;;;;;;-141.02;100.00;81275.25;5134012;27;20263;-59
2023/09/09 05:07:53;;;;;;;9.90;9.60;;;;;;;-141.02;100.00;81275.25;5133947;27;20625;-58
2023/09/09 05:10:22;;;;;;;9.30;9.00;;;;;;;-141.02;100.00;81275.25;5134414;27;20616;-58
2023/09/09 05:12:49;;;;;;;9.80;9.50;;;;;;;-141.02;100.00;81026.72;5133893;27;20224;-58
2023/09/09 05:15:16;;;;;;;9.75;9.45;;;;;;;-141.02;100.00;81275.25;5133965;27;20659;-58
2023/09/09 05:17:43;;;;;;;9.80;9.50;;;;;;;-141.02;100.00;81026.72;5133987;27;20654;-59
2023/09/09 05:20:12;;;;;;;9.88;9.57;;;;;;;-141.02;100.00;80281.31;5134163;27;20598;-58
2023/09/09 05:22:40;;;;;;;10.20;9.90;;;;;;;-141.02;100.00;79536.03;5133837;27;20265;-58
2023/09/09 05:25:07;;;;;;;11.00;10.70;;;;;;;-141.02;100.00;78542.63;5134460;27;20287;-58
2023/09/09 05:27:34;;;;;;;11.60;11.30;;;;;;;-141.02;100.00;77549.47;5134363;27;20196;-58
2023/09/09 05:30:01;;;;;;;12.00;11.60;;;;;;;-141.02;100.00;76308.44;5133693;27;20193;-58
2023/09/09 05:32:28;;;;;;;11.57;11.27;;;;;;;-141.02;100.00;75812.16;5133780;27;20227;-58
2023/09/09 05:34:55;;;;;;;12.18;11.77;;;;;;;-141.02;100.00;74323.72;5133919;27;20224;-59
2023/09/09 05:37:23;;;;;;;12.73;12.32;;;;;;;-141.02;100.00;73579.75;5133774;27;20257;-58
2023/09/09 05:39:51;;;;;;;12.55;12.15;;;;;;;-141.02;100.00;72835.97;5133864;27;20200;-58
2023/09/09 05:42:18;;;;;;;13.10;12.70;;;;;;;-141.02;100.00;71844.47;5133894;27;20252;-58
2023/09/09 05:44:45;;;;;;;13.32;12.93;;;;;;;-141.02;100.00;69366.97;5133456;27;20688;-58
2023/09/09 05:47:12;;;;;;;14.45;13.95;;;;;;;-141.02;100.00;64912.06;5133730;27;20218;-58
2023/09/09 05:49:39;;;;;;;14.45;13.95;;;;;;;-141.02;100.00;64664.72;5133384;27;20201;-58
2023/09/09 05:52:07;;;;;;;13.02;12.63;;;;;;;-141.02;100.00;65159.41;5133418;27;20207;-58
2023/09/09 05:54:34;;;;;;;13.00;12.60;;;;;;;-141.02;100.00;65159.41;5133517;27;20228;-58
2023/09/09 05:57:02;;;;;;;12.48;12.07;;;;;;;-141.02;100.00;65901.53;5133581;27;20218;-59
2023/09/09 05:59:29;;;;;;;12.68;12.27;;;;;;;-141.02;100.00;66396.38;5133555;27;20219;-58
2023/09/09 06:01:56;;;;;;;12.60;12.20;;;;;;;-141.02;100.00;64664.72;5133251;27;20198;-58
2023/09/09 06:04:23;;;;;;;13.05;12.65;;;;;;;-141.02;100.00;64912.06;5133010;27;20259;-59
2023/09/09 06:06:50;;;;;;;12.35;11.95;;;;;;;-141.02;100.00;65901.53;5133419;27;20305;-59
2023/09/09 06:09:18;;;;;;;12.60;12.20;;;;;;;-141.02;100.00;65159.41;5133484;27;20189;-58
2023/09/09 06:11:45;;;;;;;12.63;12.23;;;;;;;-141.02;100.00;64417.41;5133065;27;20631;-58
2023/09/09 06:14:13;;;;;;;12.88;12.48;;;;;;;-141.02;100.00;63922.84;5132991;27;20720;-58
2023/09/09 06:16:40;;;;;;;12.98;12.57;;;;;;;-141.02;100.00;62686.75;5133288;27;20192;-58
2023/09/09 06:19:07;;;;;;;13.73;13.32;;;;;;;-141.02;100.00;61698.22;5132443;27;20284;-58
2023/09/09 06:21:34;;;;;;;13.20;12.80;;;;;;;-141.02;100.00;62192.44;5133014;27;20192;-58
2023/09/09 06:24:02;;;;;;;13.93;13.52;;;;;;;-141.02;100.00;60215.94;5133277;27;20731;-59
2023/09/09 06:26:32;;;;;;;14.02;13.63;;;;;;;-141.02;100.00;59228.09;5132994;27;20200;-58
2023/09/09 06:28:59;;;;;;;13.48;13.07;;;;;;;-141.02;100.00;58734.28;5132897;27;20196;-58
2023/09/09 06:31:27;;;;;;;13.10;12.70;;;;;;;-141.02;100.00;59228.09;5132919;27;20670;-58
2023/09/09 06:33:54;;;;;;;13.57;13.18;;;;;;;-141.02;100.00;57746.88;5132830;28;20709;-58
2023/09/09 06:36:22;;;;;;;13.30;12.90;;;;;;;-141.02;100.00;57500.06;5132850;27;20658;-59
2023/09/09 06:38:49;;;;;;;13.07;12.68;;;;;;;-141.02;100.00;57006.53;5133109;27;20207;-59
2023/09/09 06:41:16;;;;;;;13.48;13.07;;;;;;;-141.02;100.00;57006.53;5133077;27;20202;-58
2023/09/09 06:43:43;;;;;;;13.38;12.98;;;;;;;-141.02;100.00;54455.06;5133126;27;20271;-58
2023/09/09 06:46:10;;;;;;;14.07;13.57;;;;;;;-141.02;100.00;54196.94;5133055;27;20198;-58
2023/09/09 06:48:39;;;;;;;14.48;13.98;;;;;;;-141.02;100.00;54015.88;5133018;27;20193;-59
2023/09/09 06:51:05;;;;;;;14.32;13.82;;;;;;;-141.02;100.00;52914.31;5132659;27;20192;-58
2023/09/09 06:53:32;;;;;;;14.18;13.68;;;;;;;-141.02;100.00;52047.94;5132850;27;20220;-59
2023/09/09 06:55:59;;;;;;;14.27;13.77;;;;;;;-141.02;100.00;51786.16;5132700;27;20684;-59
2023/09/09 06:58:26;;;;;;;14.52;14.02;;;;;;;-141.02;100.00;50662.22;5132634;27;20651;-58
2023/09/09 07:00:54;;;;;;;14.35;13.85;;;;;;;-141.02;100.00;50367.84;5132943;27;20257;-58
2023/09/09 07:03:21;;;;;;;14.85;14.35;;;;;;;-141.02;100.00;48496.28;5132578;27;20659;-58
2023/09/09 07:05:50;;;;;;;15.05;14.55;;;;;;;-141.02;100.00;50119.66;5132439;27;20307;-58
2023/09/09 07:08:17;;;;;;;15.07;14.48;;;;;;;-141.02;100.00;49084.75;5132582;27;20193;-58
2023/09/09 07:10:49;;;;;;;15.93;15.23;;;;;;;-141.02;100.00;48169.38;5132762;27;20193;-58
2023/09/09 07:13:17;;;;;;;16.70;15.90;;;;;;;-141.02;100.00;47000.53;5132477;27;20299;-58
2023/09/09 07:15:44;;;;;;;16.98;16.17;;;;;;;-141.02;100.00;46229.84;5132500;27;20250;-58
2023/09/09 07:18:11;;;;;;;17.60;16.70;;;;;;;-141.02;100.00;46354.75;5132475;27;20253;-59
2023/09/09 07:20:38;;;;;;;18.05;17.15;;;;;;;-141.02;100.00;46245.22;5132396;27;20674;-58
2023/09/09 07:23:06;;;;;;;18.50;17.60;;;;;;;-141.02;100.00;46887.13;5132659;27;20197;-58
2023/09/09 07:25:34;;;;;;;18.98;18.08;;;;;;;-141.02;100.00;46885.19;5132723;27;20192;-59
2023/09/09 07:28:02;;;;;;;17.75;16.85;;;;;;;-141.02;100.00;46345.16;5132338;27;20568;-59
2023/09/09 07:30:29;;;;;;;18.90;17.90;;;;;;;-141.02;100.00;46545.00;5132811;27;20197;-58
2023/09/09 07:32:56;;;;;;;19.08;18.08;;;;;;;-141.02;98.78;44702.44;5136323;27;20238;-58
2023/09/09 07:35:23;;;;;;;19.25;18.25;;;;;;;-141.02;98.73;44640.97;5136198;27;20310;-58
2023/09/09 07:37:50;;;;;;;18.60;17.70;;;;;;;-141.02;98.41;44796.56;5135977;27;20666;-58
2023/09/09 07:40:19;;;;;;;19.85;18.75;;;;;;;-141.02;93.18;44085.94;5135815;27;20735;-59
2023/09/09 07:42:46;;;;;;;19.55;18.55;;;;;;;-141.02;90.34;43838.19;5135818;27;20200;-59
2023/09/09 07:45:13;;;;;;;19.55;18.55;;;;;;;-141.02;86.71;43550.16;5135846;27;20241;-59
2023/09/09 07:47:40;;;;;;;20.48;19.40;;;;;;;-141.02;84.80;43580.88;5136043;27;20204;-59
2023/09/09 07:50:08;;;;;;;20.73;19.63;;;;;;;-141.02;84.47;43673.06;5136031;27;20199;-59
2023/09/09 07:52:36;;;;;;;20.20;19.20;;;;;;;-141.02;83.40;43688.41;5135540;27;20231;-58
2023/09/09 07:55:03;;;;;;;20.80;19.70;;;;;;;-141.02;80.63;43482.94;5135919;27;20227;-59
2023/09/09 07:57:31;;;;;;;21.08;19.98;;;;;;;-141.02;76.56;43148.88;5135520;27;20283;-58
2023/09/09 07:59:58;;;;;;;21.27;20.08;;;;;;;-141.02;76.18;43148.88;5135898;27;20188;-59
2023/09/09 08:02:25;;;;;;;19.88;18.77;;;;;;;-141.02;73.38;43066.31;5135690;27;20196;-59
2023/09/09 08:04:52;;;;;;;19.52;18.52;;;;;;;-141.02;77.76;43440.72;5135239;27;20224;-59
2023/09/09 08:07:19;;;;;;;20.23;19.13;;;;;;;-141.02;76.49;43294.78;5135346;27;20228;-59
2023/09/09 08:09:46;;;;;;;20.55;19.45;;;;;;;-141.02;73.90;43452.22;5134990;27;20294;-59
2023/09/09 08:12:13;;;;;;;20.80;19.70;;;;;;;-141.02;70.87;43379.28;5135127;27;20235;-59
2023/09/09 08:14:43;;;;;;;21.27;20.08;;;;;;;-141.02;66.59;43027.91;5135046;27;20259;-59
2023/09/09 08:17:10;;;;;;;20.35;19.25;;;;;;;-141.02;66.33;42981.84;5135162;27;20200;-59
2023/09/09 08:19:37;;;;;;;21.20;20.00;;;;;;;-141.02;65.69;43258.31;5135437;27;20227;-59
2023/09/09 08:22:04;;;;;;;20.95;19.75;;;;;;;-141.02;63.85;42979.91;5135322;27;20196;-59
2023/09/09 08:24:31;;;;;;;19.75;18.65;;;;;;;-141.02;62.74;43010.63;5135047;27;20287;-59
2023/09/09 08:26:58;;;;;;;19.92;18.83;;;;;;;-141.02;61.39;42870.50;5134970;27;20220;-59
2023/09/09 08:29:25;;;;;;;19.95;18.85;;;;;;;-141.02;61.49;43035.59;5134579;27;20192;-59
2023/09/09 08:31:53;;;;;;;19.73;18.63;;;;;;;-141.02;59.59;42764.91;5134715;27;20613;-59
2023/09/09 08:34:20;;;;;;;19.90;18.80;;;;;;;-141.02;58.72;42981.84;5134872;27;20261;-59
2023/09/09 08:36:47;;;;;;;19.55;18.45;;;;;;;-141.02;58.41;42736.13;5134732;27;20235;-60
2023/09/09 08:39:14;;;;;;;20.48;19.27;;;;;;;-141.02;51.54;42083.47;5134950;27;20601;-59
2023/09/09 08:41:58;;;;;;;19.63;18.52;;;;;;;-141.02;51.02;41645.91;5134498;27;20216;-59
2023/09/09 08:44:39;;;;;;;19.90;18.80;;;;;;;-141.02;50.77;41655.50;5134770;27;20184;-59
2023/09/09 08:47:09;;;;;;;19.73;18.63;;;;;;;-141.02;50.56;41843.56;5134884;27;20195;-59
2023/09/09 08:49:37;;;;;;;19.45;18.40;;;;;;;-141.02;50.19;41640.16;5134732;27;20253;-59
2023/09/09 08:52:11;;;;;;;19.75;18.65;;;;;;;-141.02;49.63;41494.31;5134722;27;20247;-59
2023/09/09 08:54:38;;;;;;;20.27;19.17;;;;;;;-141.02;50.28;41542.28;5134570;27;20283;-60
2023/09/09 08:57:06;;;;;;;19.45;18.35;;;;;;;-141.02;49.66;41555.72;5134513;27;20202;-67
2023/09/09 08:59:34;;;;;;;19.15;18.15;;;;;;;-141.02;49.86;41676.59;5134086;27;20195;-60
2023/09/09 09:02:03;;;;;;;19.58;18.48;;;;;;;-141.02;47.86;41496.22;5134417;27;20196;-59
2023/09/09 09:04:33;;;;;;;19.20;18.20;;;;;;;-141.02;48.40;41492.38;5133723;27;20657;-59
2023/09/09 09:07:02;;;;;;;19.80;18.70;;;;;;;-141.02;47.95;41477.03;5134072;27;20181;-59
2023/09/09 09:09:29;;;;;;;19.58;18.48;;;;;;;-141.02;47.46;41511.56;5134118;27;20200;-59
2023/09/09 09:11:59;;;;;;;19.27;18.25;;;;;;;-141.02;47.42;41528.84;5134017;27;20242;-59
2023/09/09 09:14:26;;;;;;;19.58;18.48;;;;;;;-141.02;47.34;41536.53;5134266;27;20231;-59
2023/09/09 09:16:54;;;;;;;19.35;18.35;;;;;;;-141.02;47.03;41538.44;5133855;27;20201;-59
2023/09/09 09:19:27;;;;;;;19.13;18.13;;;;;;;-141.02;46.94;41392.59;5134185;27;20228;-59
2023/09/09 09:21:56;;;;;;;19.60;18.50;;;;;;;-141.02;47.34;41615.19;5134100;27;20728;-60
2023/09/09 09:24:25;;;;;;;19.38;18.27;;;;;;;-141.02;46.82;41599.84;5134028;27;20300;-59
2023/09/09 09:26:54;;;;;;;19.30;18.20;;;;;;;-141.02;47.11;41653.59;5133612;27;20192;-59
2023/09/09 09:29:21;;;;;;;19.42;18.23;;;;;;;-141.02;47.45;41640.16;5134017;27;20193;-59
2023/09/09 09:31:52;;;;;;;19.15;18.05;;;;;;;-141.02;47.57;41680.44;5134008;27;20272;-59
2023/09/09 09:34:20;;;;;;;18.75;17.65;;;;;;;-141.02;47.13;41722.66;5133922;27;20584;-59
2023/09/09 09:36:47;;;;;;;18.70;17.60;;;;;;;-141.02;47.16;41718.81;5133940;27;20201;-59
2023/09/09 09:39:16;;;;;;;19.20;18.10;;;;;;;-141.02;47.07;41730.34;5133494;27;20218;-59
2023/09/09 09:41:44;;;;;;;18.92;17.88;;;;;;;-141.02;47.08;41807.09;5133876;27;20254;-60
2023/09/09 09:44:21;;;;;;;18.50;17.50;;;;;;;-141.02;47.13;41780.25;5133815;27;20253;-59
2023/09/09 09:47:00;;;;;;;18.92;17.92;;;;;;;-141.02;47.18;41837.81;5133472;27;20225;-59
2023/09/09 09:49:38;;;;;;;18.80;17.80;;;;;;;-141.02;47.73;41841.66;5133787;27;20282;-59
2023/09/09 09:52:05;;;;;;;18.48;17.48;;;;;;;-141.02;47.77;41855.09;5133754;27;20184;-59
2023/09/09 09:54:35;;;;;;;18.70;17.70;;;;;;;-141.02;47.04;41855.09;5132738;27;20220;-59
2023/09/09 09:57:05;;;;;;;19.00;17.90;;;;;;;-141.02;47.47;41903.06;5133604;27;20283;-59
2023/09/09 09:59:33;;;;;;;18.65;17.55;;;;;;;-141.02;47.40;41845.50;5133547;27;20224;-59
2023/09/09 10:02:03;;;;;;;18.75;17.65;;;;;;;-141.02;47.31;41891.56;5133278;27;20252;-68
2023/09/09 10:04:37;;;;;;;18.65;17.58;;;;;;;-141.02;46.74;41906.91;5133219;27;20307;-59
2023/09/09 10:07:08;;;;;;;18.48;17.40;;;;;;;-141.02;46.53;41945.28;5133214;27;20187;-59
2023/09/09 10:09:42;;;;;;;18.63;17.63;;;;;;;-141.02;47.01;41977.91;5133143;27;20722;-59
2023/09/09 10:12:16;;;;;;;18.52;17.52;;;;;;;-141.02;46.99;41952.97;5133249;27;20216;-59
2023/09/09 10:14:43;;;;;;;18.40;17.40;;;;;;;-141.02;47.77;42018.22;5133247;27;20300;-59
2023/09/09 10:17:14;;;;;;;18.23;17.23;;;;;;;-141.02;47.46;42002.88;5133017;27;20257;-59
2023/09/09 10:19:42;;;;;;;18.92;17.83;;;;;;;-141.02;46.82;41968.31;5133092;27;20576;-59
2023/09/09 10:22:10;;;;;;;18.45;17.38;;;;;;;-141.02;46.50;42002.88;5132972;27;20650;-59
2023/09/09 10:24:40;;;;;;;18.20;17.20;;;;;;;-141.02;46.44;41976.00;5132936;27;20283;-59
2023/09/09 10:27:08;;;;;;;18.35;17.35;;;;;;;-141.02;46.23;41972.16;5133364;27;20221;-59
2023/09/09 10:29:38;;;;;;;18.80;17.70;;;;;;;-141.02;46.12;41987.50;5133239;27;20192;-59
2023/09/09 10:32:06;;;;;;;18.77;17.77;;;;;;;-141.02;46.19;42043.19;5133209;27;20212;-59
2023/09/09 10:34:35;;;;;;;18.55;17.45;;;;;;;-141.02;46.48;42039.34;5132875;27;20219;-60
2023/09/09 10:37:05;;;;;;;18.65;17.55;;;;;;;-141.02;46.18;42054.69;5133139;27;20219;-60
2023/09/09 10:39:33;;;;;;;20.10;19.00;;;;;;;-141.02;46.39;42064.28;5132740;28;20224;-59
2023/09/09 10:42:02;;;;;;;18.90;17.88;;;;;;;-141.02;46.72;42110.34;5133118;27;20188;-59
2023/09/09 10:44:29;;;;;;;18.67;17.67;;;;;;;-141.02;46.24;42110.34;5132978;27;20296;-59
2023/09/09 10:46:56;;;;;;;18.73;17.73;;;;;;;-141.02;46.53;42083.47;5133054;27;20193;-59
2023/09/09 10:49:27;;;;;;;18.92;17.83;;;;;;;-141.02;46.09;42095.00;5132635;27;20206;-59
2023/09/09 10:51:55;;;;;;;18.52;17.45;;;;;;;-141.02;45.72;42121.88;5132986;27;20195;-59
2023/09/09 10:54:24;;;;;;;18.80;17.70;;;;;;;-141.02;45.52;42118.03;5132554;27;20584;-59
2023/09/09 10:56:52;;;;;;;19.10;18.00;;;;;;;-141.02;45.77;42160.25;5132574;27;20252;-59
2023/09/09 10:59:22;;;;;;;18.58;17.58;;;;;;;-141.02;46.09;42144.91;5132656;27;20193;-59
2023/09/09 11:01:49;;;;;;;18.67;17.58;;;;;;;-141.02;46.76;42190.97;5132626;27;20287;-59
2023/09/09 11:04:24;;;;;;;18.85;17.75;;;;;;;-141.02;46.61;42141.06;5132758;27;20239;-60